Search METAR Data

METAR Data for ENHD:

ENHD 211250Z 19015KT 9999 BKN045 20/14 Q1004